Time;durP1;ratioP1;P1;durP2;ratioP2;P2;SDS_P1;SDS_P2;PMS_P1;PMS_P2;Temp;Humidity;BMP_temperature;BMP_pressure;BME280_temperature;BME280_humidity;BME280_pressure;Samples;Min_cycle;Max_cycle;Signal;HPM_P1;HPM_P2
2022/06/27 00:01:14;;;;;;;;;;;;;;;20.81;76.96;99805.94;3157885;28;19924;-65
2022/06/27 00:02:46;;;;;;;;;;;;;;;20.79;77.16;99805.22;3157789;28;19920;-65
2022/06/27 00:04:18;;;;;;;;;;;;;;;20.76;77.73;99809.94;3157695;28;19920;-65
2022/06/27 00:05:49;;;;;;;;;;;;;;;20.71;78.00;99804.25;3147260;28;19920;-65
2022/06/27 00:07:21;;;;;;;;;;;;;;;20.68;77.83;99800.88;3146453;28;19985;-65
2022/06/27 00:08:52;;;;;;;;;;;;;;;20.65;78.54;99806.44;3145518;28;20015;-65
2022/06/27 00:10:24;;;;;;;;;;;;;;;20.62;78.80;99808.53;3145301;28;19931;-64
2022/06/27 00:11:57;;;;;;;;;;;;;;;20.60;78.62;99808.66;3144885;28;20397;-65
2022/06/27 00:13:30;;;;;;;;;;;;;;;20.62;78.45;99805.88;3145186;28;20447;-65
2022/06/27 00:15:01;;;;;;;;;;;;;;;20.61;78.68;99802.38;3145569;28;20029;-65
2022/06/27 00:16:33;;;;;;;;;;;;;;;20.61;78.51;99798.91;3145218;28;19968;-65
2022/06/27 00:18:05;;;;;;;;;;;;;;;20.61;78.71;99799.72;3144899;28;19924;-65
2022/06/27 00:19:36;;;;;;;;;;;;;;;20.62;78.47;99803.25;3144878;28;19920;-65
2022/06/27 00:21:07;;;;;;;;;;;;;;;20.62;78.42;99796.13;3144889;28;19939;-65
2022/06/27 00:22:38;;;;;;;;;;;;;;;20.64;78.48;99799.47;3145469;28;20508;-65
2022/06/27 00:24:10;;;;;;;;;;;;;;;20.64;78.73;99799.47;3144983;28;19920;-65
2022/06/27 00:25:40;;;;;;;;;;;;;;;20.66;78.61;99794.88;3144907;28;19982;-65
2022/06/27 00:27:12;;;;;;;;;;;;;;;20.66;78.35;99791.41;3145395;28;19920;-65
2022/06/27 00:28:45;;;;;;;;;;;;;;;20.68;77.88;99797.41;3145581;28;19925;-64
2022/06/27 00:30:16;;;;;;;;;;;;;;;20.68;78.18;99798.25;3142608;28;20365;-65
2022/06/27 00:31:47;;;;;;;;;;;;;;;20.67;78.14;99801.88;3145410;28;20062;-65
2022/06/27 00:33:19;;;;;;;;;;;;;;;20.66;78.00;99794.88;3145006;28;20424;-65
2022/06/27 00:34:51;;;;;;;;;;;;;;;20.68;77.97;99813.28;3144977;28;20061;-65
2022/06/27 00:36:22;;;;;;;;;;;;;;;20.67;77.74;99801.88;3145025;28;20321;-65
2022/06/27 00:37:54;;;;;;;;;;;;;;;20.68;77.93;99800.88;3144833;28;19924;-65
2022/06/27 00:39:25;;;;;;;;;;;;;;;20.67;78.07;99801.00;3144934;28;20258;-65
2022/06/27 00:40:57;;;;;;;;;;;;;;;20.66;78.40;99805.47;3144856;28;19928;-65
2022/06/27 00:42:29;;;;;;;;;;;;;;;20.62;78.88;99806.72;3144666;28;19924;-65
2022/06/27 00:44:02;;;;;;;;;;;;;;;20.59;79.17;99809.63;3147713;28;19927;-65
2022/06/27 00:45:33;;;;;;;;;;;;;;;20.55;79.43;99810.84;3144771;28;19924;-65
2022/06/27 00:47:06;;;;;;;;;;;;;;;20.54;79.49;99803.88;3143285;28;20470;-65
2022/06/27 00:48:37;;;;;;;;;;;;;;;20.54;79.40;99803.88;3140990;28;19969;-65
2022/06/27 00:50:10;;;;;;;;;;;;;;;20.54;79.29;99806.53;3144562;28;19924;-65
2022/06/27 00:51:40;;;;;;;;;;;;;;;20.52;79.73;99800.53;3146583;28;19978;-65
2022/06/27 00:53:12;;;;;;;;;;;;;;;20.50;79.44;99799.81;3144822;28;20069;-65
2022/06/27 00:54:44;;;;;;;;;;;;;;;20.52;79.18;99805.81;3144909;28;19924;-65
2022/06/27 00:56:16;;;;;;;;;;;;;;;20.53;79.11;99804.88;3147417;28;19920;-65
2022/06/27 00:57:48;;;;;;;;;;;;;;;20.54;78.90;99806.53;3144682;28;19931;-65
2022/06/27 00:59:20;;;;;;;;;;;;;;;20.56;78.83;99809.06;3152199;28;19920;-65
2022/06/27 01:00:51;;;;;;;;;;;;;;;20.56;78.82;99804.59;3147388;28;19964;-65
2022/06/27 01:02:23;;;;;;;;;;;;;;;20.57;78.69;99806.28;3147310;28;19920;-65
2022/06/27 01:04:00;;;;;;;;;;;;;;;20.56;78.51;99809.91;3141396;28;20006;-65
2022/06/27 01:05:32;;;;;;;;;;;;;;;20.54;78.59;99809.19;3146701;28;19921;-65
2022/06/27 01:07:04;;;;;;;;;;;;;;;20.48;78.87;99806.22;3147366;28;19989;-66
2022/06/27 01:08:36;;;;;;;;;;;;;;;20.44;78.80;99808.28;3144817;28;19931;-66
2022/06/27 01:10:07;;;;;;;;;;;;;;;20.40;78.54;99820.06;3146806;28;20329;-65
2022/06/27 01:11:39;;;;;;;;;;;;;;;20.37;78.66;99818.53;3147023;28;19924;-64
2022/06/27 01:13:11;;;;;;;;;;;;;;;20.36;78.71;99818.69;3147007;28;19924;-65
2022/06/27 01:14:44;;;;;;;;;;;;;;;20.27;79.34;99811.53;3147566;28;19927;-65
2022/06/27 01:16:15;;;;;;;;;;;;;;;20.14;80.23;99817.00;3146909;28;19931;-65
2022/06/27 01:17:48;;;;;;;;;;;;;;;20.06;80.40;99814.19;3143499;28;19927;-65
2022/06/27 01:19:18;;;;;;;;;;;;;;;19.99;80.95;99817.38;3145672;28;19924;-65
2022/06/27 01:20:50;;;;;;;;;;;;;;;19.94;81.43;99813.44;3147159;28;19926;-65
2022/06/27 01:22:22;;;;;;;;;;;;;;;19.87;81.78;99813.09;3146414;28;19920;-65
2022/06/27 01:23:53;;;;;;;;;;;;;;;19.83;82.03;99816.13;3147082;28;20439;-64
2022/06/27 01:25:25;;;;;;;;;;;;;;;19.78;82.40;99825.25;3147136;28;19927;-64
2022/06/27 01:26:57;;;;;;;;;;;;;;;19.77;82.06;99820.13;3147178;28;20286;-64
2022/06/27 01:28:29;;;;;;;;;;;;;;;19.75;82.45;99819.41;3152309;28;20302;-64
2022/06/27 01:30:01;;;;;;;;;;;;;;;19.71;82.68;99824.09;3147955;28;19924;-64
2022/06/27 01:31:34;;;;;;;;;;;;;;;19.67;82.68;99817.41;3147083;28;20317;-65
2022/06/27 01:33:06;;;;;;;;;;;;;;;19.65;83.09;99813.22;3146991;28;19932;-65
2022/06/27 01:34:38;;;;;;;;;;;;;;;19.61;82.96;99825.81;3146710;28;19921;-65
2022/06/27 01:38:00;;;;;;;;;;;;;;;19.57;83.70;99823.53;3143815;28;20012;-65
2022/06/27 01:39:31;;;;;;;;;;;;;;;19.53;84.25;99825.59;3146962;28;19927;-65
2022/06/27 01:41:03;;;;;;;;;;;;;;;19.53;83.98;99826.44;3146882;28;19993;-65
2022/06/27 01:42:35;;;;;;;;;;;;;;;19.50;84.35;99824.03;3146913;28;19925;-65
2022/06/27 01:44:07;;;;;;;;;;;;;;;19.45;84.93;99830.66;3148510;28;19999;-65
2022/06/27 01:45:38;;;;;;;;;;;;;;;19.38;85.20;99827.69;3146626;28;19925;-65
2022/06/27 01:47:10;;;;;;;;;;;;;;;19.32;85.69;99826.38;3144308;28;19964;-64
2022/06/27 01:48:42;;;;;;;;;;;;;;;19.27;86.35;99836.47;3144072;28;19994;-65
2022/06/27 01:50:15;;;;;;;;;;;;;;;19.24;86.53;99830.59;3146495;28;20005;-65
2022/06/27 01:51:48;;;;;;;;;;;;;;;19.20;86.84;99831.81;3147476;28;19920;-65
2022/06/27 01:53:21;;;;;;;;;;;;;;;19.17;87.33;99830.25;3141644;28;20010;-65
2022/06/27 01:54:53;;;;;;;;;;;;;;;19.16;87.54;99828.56;3146797;28;19932;-65
2022/06/27 01:56:23;;;;;;;;;;;;;;;19.14;87.60;99825.22;3146650;28;20322;-65
2022/06/27 01:57:55;;;;;;;;;;;;;;;19.17;87.20;99830.25;3146885;28;19936;-65
2022/06/27 01:59:29;;;;;;;;;;;;;;;19.20;87.12;99822.09;3151100;28;19921;-65
2022/06/27 02:01:01;;;;;;;;;;;;;;;19.24;86.65;99818.22;3146783;28;19920;-65
2022/06/27 02:02:32;;;;;;;;;;;;;;;19.28;86.21;99819.66;3146620;28;19991;-65
2022/06/27 02:04:05;;;;;;;;;;;;;;;19.33;85.47;99819.28;3146030;28;19944;-65
2022/06/27 02:05:36;;;;;;;;;;;;;;;19.38;85.33;99813.66;3146447;28;19974;-65
2022/06/27 02:07:08;;;;;;;;;;;;;;;19.43;85.17;99817.59;3147444;28;19928;-65
2022/06/27 02:08:41;;;;;;;;;;;;;;;19.45;84.79;99815.66;3147208;28;19920;-65
2022/06/27 02:10:13;;;;;;;;;;;;;;;19.48;84.54;99809.28;3145685;28;19920;-64
2022/06/27 02:11:45;;;;;;;;;;;;;;;19.50;84.71;99812.63;3137414;28;19921;-65
2022/06/27 02:13:17;;;;;;;;;;;;;;;19.49;84.98;99817.09;3146349;28;19924;-65
2022/06/27 02:14:49;;;;;;;;;;;;;;;19.47;85.63;99812.88;3146663;28;19989;-65
2022/06/27 02:16:20;;;;;;;;;;;;;;;19.46;85.23;99816.47;3146435;28;20029;-65
2022/06/27 02:17:52;;;;;;;;;;;;;;;19.47;85.22;99824.28;3143512;28;19920;-64
2022/06/27 02:19:23;;;;;;;;;;;;;;;19.51;84.97;99827.50;3146480;28;19928;-64
2022/06/27 02:20:54;;;;;;;;;;;;;;;19.53;84.69;99822.94;3146547;28;19920;-64
2022/06/27 02:22:26;;;;;;;;;;;;;;;19.54;84.59;99819.34;3146255;28;19930;-64
2022/06/27 02:23:58;;;;;;;;;;;;;;;19.55;84.20;99818.34;3146779;28;19967;-65
2022/06/27 02:25:30;;;;;;;;;;;;;;;19.59;84.15;99830.38;3142947;28;19931;-65
2022/06/27 02:27:01;;;;;;;;;;;;;;;19.62;83.93;99824.84;3146539;28;19993;-65
2022/06/27 02:28:33;;;;;;;;;;;;;;;19.64;83.55;99832.63;3151940;28;20253;-65
2022/06/27 02:30:05;;;;;;;;;;;;;;;19.66;83.44;99833.38;3141913;28;19924;-65
2022/06/27 02:31:44;;;;;;;;;;;;;;;19.68;83.42;99831.44;3146441;28;19920;-64
2022/06/27 02:33:16;;;;;;;;;;;;;;;19.68;83.38;99836.72;3145409;28;19959;-64
2022/06/27 02:34:49;;;;;;;;;;;;;;;19.68;83.39;99832.28;3146170;28;20401;-65
2022/06/27 02:36:21;;;;;;;;;;;;;;;19.69;83.36;99838.41;3145944;28;19921;-65
2022/06/27 02:37:53;;;;;;;;;;;;;;;19.69;83.15;99835.75;3146109;28;19920;-65
2022/06/27 02:39:29;;;;;;;;;;;;;;;19.70;83.57;99829.50;3146175;28;19927;-65
2022/06/27 02:41:03;;;;;;;;;;;;;;;19.69;83.48;99836.59;3146116;28;20393;-65
2022/06/27 02:42:34;;;;;;;;;;;;;;;19.71;83.54;99832.03;3146218;28;19927;-65
2022/06/27 02:44:06;;;;;;;;;;;;;;;19.73;83.55;99838.03;3147372;28;19931;-65
2022/06/27 02:45:38;;;;;;;;;;;;;;;19.73;83.62;99835.38;3145923;28;19920;-65
2022/06/27 02:47:09;;;;;;;;;;;;;;;19.75;83.47;99836.06;3143769;28;19989;-65
2022/06/27 02:48:40;;;;;;;;;;;;;;;19.76;83.68;99843.06;3144381;28;20041;-64
2022/06/27 02:50:12;;;;;;;;;;;;;;;19.76;83.60;99848.34;3145845;28;19924;-65
2022/06/27 02:51:45;;;;;;;;;;;;;;;19.76;83.75;99843.06;3146043;28;19924;-65
2022/06/27 02:53:19;;;;;;;;;;;;;;;19.78;83.34;99840.28;3145770;28;19928;-65
2022/06/27 02:54:55;;;;;;;;;;;;;;;19.80;83.31;99837.53;3145922;28;19920;-65
2022/06/27 02:56:26;;;;;;;;;;;;;;;19.80;83.07;99843.63;3146007;28;19924;-65
2022/06/27 02:58:00;;;;;;;;;;;;;;;19.81;83.38;99837.38;3146012;28;20329;-64
2022/06/27 02:59:34;;;;;;;;;;;;;;;19.81;83.68;99839.19;3149476;28;19927;-65
2022/06/27 03:01:07;;;;;;;;;;;;;;;19.80;83.29;99842.81;3145959;28;20462;-65
2022/06/27 03:02:38;;;;;;;;;;;;;;;19.81;83.15;99844.47;3145715;28;19993;-65
2022/06/27 03:04:09;;;;;;;;;;;;;;;19.80;83.48;99845.44;3145656;28;20065;-65
2022/06/27 03:05:54;;;;;;;;;;;;;;;19.79;83.33;99847.25;3145575;28;20267;-65
2022/06/27 03:07:26;;;;;;;;;;;;;;;19.81;83.07;99847.94;3145809;28;19936;-64
2022/06/27 03:08:57;;;;;;;;;;;;;;;19.83;83.05;99855.75;3145825;28;19927;-65
2022/06/27 03:10:30;;;;;;;;;;;;;;;19.78;83.86;99851.69;3145628;28;19924;-65
2022/06/27 03:12:01;;;;;;;;;;;;;;;19.73;84.21;99859.16;3145654;28;19931;-65
2022/06/27 03:13:32;;;;;;;;;;;;;;;19.67;84.80;99851.75;3141271;28;19920;-65
2022/06/27 03:15:03;;;;;;;;;;;;;;;19.61;85.30;99849.59;3144571;28;20097;-65
2022/06/27 03:16:34;;;;;;;;;;;;;;;19.56;85.71;99843.81;3145549;28;19924;-65
2022/06/27 03:18:06;;;;;;;;;;;;;;;19.52;85.80;99848.53;3141530;28;19920;-65
2022/06/27 03:19:38;;;;;;;;;;;;;;;19.52;85.98;99850.31;3145500;28;19924;-65
2022/06/27 03:21:08;;;;;;;;;;;;;;;19.52;85.96;99847.66;3145499;28;19931;-65
2022/06/27 03:22:40;;;;;;;;;;;;;;;19.48;86.06;99839.16;3145630;28;19932;-65
2022/06/27 03:24:11;;;;;;;;;;;;;;;19.43;86.23;99843.13;3145397;28;19927;-65
2022/06/27 03:25:43;;;;;;;;;;;;;;;19.42;86.16;99854.69;3145812;28;19970;-65
2022/06/27 03:27:15;;;;;;;;;;;;;;;19.38;86.53;99851.44;3145518;28;20374;-65
2022/06/27 03:28:46;;;;;;;;;;;;;;;19.39;86.01;99850.47;3146319;28;19920;-65
2022/06/27 03:30:17;;;;;;;;;;;;;;;19.38;85.97;99848.81;3143044;28;19920;-65
2022/06/27 03:31:49;;;;;;;;;;;;;;;19.38;85.91;99855.91;3145347;28;19924;-65
2022/06/27 03:33:19;;;;;;;;;;;;;;;19.37;85.90;99856.84;3145250;28;19921;-65
2022/06/27 03:34:51;;;;;;;;;;;;;;;19.32;86.08;99850.13;3145849;28;19920;-65
2022/06/27 03:36:22;;;;;;;;;;;;;;;19.30;86.21;99853.88;3145460;28;19927;-65
2022/06/27 03:37:53;;;;;;;;;;;;;;;19.24;86.31;99854.34;3145199;28;19924;-65
2022/06/27 03:39:25;;;;;;;;;;;;;;;19.22;86.33;99854.47;3145439;28;19979;-65
2022/06/27 03:40:58;;;;;;;;;;;;;;;19.21;86.48;99863.38;3145494;28;20344;-65
2022/06/27 03:42:29;;;;;;;;;;;;;;;19.17;86.58;99863.75;3145356;28;19921;-65
2022/06/27 03:44:01;;;;;;;;;;;;;;;19.13;86.70;99860.50;3145803;28;19927;-65
2022/06/27 03:45:32;;;;;;;;;;;;;;;19.07;86.82;99859.16;3145346;28;19920;-65
2022/06/27 03:47:03;;;;;;;;;;;;;;;19.09;86.72;99859.06;3145458;28;19924;-65
2022/06/27 03:50:26;;;;;;;;;;;;;;;19.06;87.03;99862.78;3145421;28;19925;-65
2022/06/27 03:51:56;;;;;;;;;;;;;;;19.09;86.81;99857.25;3145084;28;19982;-65
2022/06/27 03:53:28;;;;;;;;;;;;;;;19.11;86.74;99859.78;3145176;28;20030;-65
2022/06/27 03:54:59;;;;;;;;;;;;;;;19.11;86.51;99857.16;3145326;28;19997;-65
2022/06/27 03:56:33;;;;;;;;;;;;;;;19.10;86.56;99850.19;3145359;28;19977;-65
2022/06/27 03:58:06;;;;;;;;;;;;;;;19.08;86.67;99852.13;3145382;28;19959;-65
2022/06/27 03:59:37;;;;;;;;;;;;;;;19.10;86.38;99850.19;3148367;28;19924;-65
2022/06/27 04:01:09;;;;;;;;;;;;;;;19.10;86.26;99847.53;3145130;28;19924;-65
2022/06/27 04:02:39;;;;;;;;;;;;;;;19.06;86.36;99848.75;3144946;28;19928;-65
2022/06/27 04:04:11;;;;;;;;;;;;;;;19.04;86.21;99850.66;3138140;28;20425;-65
2022/06/27 04:05:42;;;;;;;;;;;;;;;19.05;85.89;99845.28;3145126;28;19931;-65
2022/06/27 04:07:14;;;;;;;;;;;;;;;19.09;85.59;99851.97;3146947;28;19977;-65
2022/06/27 04:08:45;;;;;;;;;;;;;;;19.15;85.19;99866.50;3149979;28;19928;-65
2022/06/27 04:10:17;;;;;;;;;;;;;;;19.21;84.71;99859.88;3145304;28;19935;-65
2022/06/27 04:11:50;;;;;;;;;;;;;;;19.22;84.35;99856.28;3144625;28;20026;-65
2022/06/27 04:13:21;;;;;;;;;;;;;;;19.32;84.33;99865.16;3145142;28;19981;-65
2022/06/27 04:14:53;;;;;;;;;;;;;;;19.35;84.11;99856.16;3145520;28;19942;-65
2022/06/27 04:16:24;;;;;;;;;;;;;;;19.40;83.59;99865.34;3145139;28;19932;-65
2022/06/27 04:17:56;;;;;;;;;;;;;;;19.47;83.49;99865.72;3142885;28;19931;-65
2022/06/27 04:19:28;;;;;;;;;;;;;;;19.53;83.14;99865.22;3144820;28;20007;-65
2022/06/27 04:21:00;;;;;;;;;;;;;;;19.58;82.98;99860.41;3145155;28;19997;-64
2022/06/27 04:22:30;;;;;;;;;;;;;;;19.63;82.75;99863.47;3145073;28;19974;-65
2022/06/27 04:24:03;;;;;;;;;;;;;;;19.68;82.71;99863.97;3145036;28;20019;-64
2022/06/27 04:25:34;;;;;;;;;;;;;;;19.72;82.74;99862.75;3144742;28;19921;-65
2022/06/27 04:27:07;;;;;;;;;;;;;;;19.75;82.54;99865.16;3145216;28;19950;-65
2022/06/27 04:28:38;;;;;;;;;;;;;;;19.81;82.06;99865.63;3149009;28;19963;-65
2022/06/27 04:30:16;;;;;;;;;;;;;;;19.83;82.27;99861.03;3145763;28;19921;-65
2022/06/27 04:31:47;;;;;;;;;;;;;;;19.87;82.26;99865.09;3147310;28;19924;-64
2022/06/27 04:33:19;;;;;;;;;;;;;;;19.91;82.11;99869.19;3147539;28;19924;-64
2022/06/27 04:34:51;;;;;;;;;;;;;;;19.94;82.29;99867.13;3147898;28;19999;-64
2022/06/27 04:36:23;;;;;;;;;;;;;;;19.96;81.97;99869.63;3147476;28;19920;-65
2022/06/27 04:37:54;;;;;;;;;;;;;;;20.01;81.74;99862.16;3147493;28;20011;-65
2022/06/27 04:39:26;;;;;;;;;;;;;;;20.07;81.87;99866.09;3147308;28;20011;-65
2022/06/27 04:40:58;;;;;;;;;;;;;;;20.12;81.41;99874.47;3147720;28;19921;-65
2022/06/27 04:42:31;;;;;;;;;;;;;;;20.15;81.62;99868.94;3143369;28;20006;-65
2022/06/27 04:44:03;;;;;;;;;;;;;;;20.17;81.31;99867.84;3153763;28;19977;-65
2022/06/27 04:45:35;;;;;;;;;;;;;;;20.23;81.37;99864.69;3147304;28;19956;-65
2022/06/27 04:47:08;;;;;;;;;;;;;;;20.28;81.17;99871.38;3145730;28;19920;-64
2022/06/27 04:48:39;;;;;;;;;;;;;;;20.35;80.79;99880.47;3147341;28;19927;-64
2022/06/27 04:50:12;;;;;;;;;;;;;;;20.40;80.66;99883.56;3147226;28;19982;-64
2022/06/27 04:51:45;;;;;;;;;;;;;;;20.45;80.43;99881.38;3147318;28;19924;-64
2022/06/27 04:53:18;;;;;;;;;;;;;;;20.50;80.62;99880.97;3147347;28;19928;-65
2022/06/27 04:54:49;;;;;;;;;;;;;;;20.55;80.31;99879.63;3147323;28;19924;-65
2022/06/27 04:56:21;;;;;;;;;;;;;;;20.58;79.79;99878.53;3147110;28;19960;-64
2022/06/27 04:57:54;;;;;;;;;;;;;;;20.62;79.60;99886.09;3147452;28;20543;-65
2022/06/27 04:59:25;;;;;;;;;;;;;;;20.67;79.38;99889.19;3148788;28;20245;-65
2022/06/27 05:00:57;;;;;;;;;;;;;;;20.64;78.86;99884.13;3147207;28;19981;-65
2022/06/27 05:02:29;;;;;;;;;;;;;;;20.64;78.69;99886.78;3146914;28;20007;-64
2022/06/27 05:04:00;;;;;;;;;;;;;;;20.64;78.61;99886.78;3147573;28;19920;-65
2022/06/27 05:05:32;;;;;;;;;;;;;;;20.67;78.45;99886.53;3146721;28;20413;-64
2022/06/27 05:07:04;;;;;;;;;;;;;;;20.66;78.00;99879.56;3147010;28;19925;-65
2022/06/27 05:08:37;;;;;;;;;;;;;;;20.67;77.85;99880.38;3152211;28;19920;-65
2022/06/27 05:10:09;;;;;;;;;;;;;;;20.63;77.41;99879.00;3147393;28;19931;-65
2022/06/27 05:11:40;;;;;;;;;;;;;;;20.66;77.57;99884.00;3147229;28;19920;-65
2022/06/27 05:13:13;;;;;;;;;;;;;;;20.68;77.50;99882.91;3147047;28;19936;-64
2022/06/27 05:14:45;;;;;;;;;;;;;;;20.72;77.65;99880.84;3144722;28;19924;-65
2022/06/27 05:16:17;;;;;;;;;;;;;;;20.71;77.18;99881.81;3147137;28;19924;-64
2022/06/27 05:17:48;;;;;;;;;;;;;;;20.71;77.00;99881.81;3145208;28;19921;-65
2022/06/27 05:19:20;;;;;;;;;;;;;;;20.70;76.97;99884.59;3147017;28;19966;-65
2022/06/27 05:20:51;;;;;;;;;;;;;;;20.72;77.05;99880.84;3146857;28;19940;-65
2022/06/27 05:22:23;;;;;;;;;;;;;;;20.75;76.95;99879.75;3146468;28;19927;-65
2022/06/27 05:23:55;;;;;;;;;;;;;;;20.80;76.84;99880.19;3147304;28;19920;-65
2022/06/27 05:25:26;;;;;;;;;;;;;;;20.81;76.86;99881.84;3146870;28;19931;-64
2022/06/27 05:26:58;;;;;;;;;;;;;;;20.84;76.79;99882.41;3146971;28;19930;-64
2022/06/27 05:28:31;;;;;;;;;;;;;;;20.87;76.85;99886.63;3150039;28;19943;-65
2022/06/27 05:30:04;;;;;;;;;;;;;;;20.90;76.70;99883.69;3147058;28;19925;-65
2022/06/27 05:31:35;;;;;;;;;;;;;;;20.96;76.47;99880.50;3147016;28;20000;-65
2022/06/27 05:33:07;;;;;;;;;;;;;;;21.03;76.33;99878.16;3146974;28;19977;-64
2022/06/27 05:34:39;;;;;;;;;;;;;;;21.10;76.18;99884.63;3146672;28;19924;-64
2022/06/27 05:36:11;;;;;;;;;;;;;;;21.18;76.15;99886.56;3146402;28;19927;-64
2022/06/27 05:37:43;;;;;;;;;;;;;;;21.24;76.39;99883.41;3146698;28;19920;-64
2022/06/27 05:39:15;;;;;;;;;;;;;;;21.28;75.64;99884.81;3146917;28;19924;-65
2022/06/27 05:40:47;;;;;;;;;;;;;;;21.26;75.74;99887.56;3146370;28;19920;-64
2022/06/27 05:42:18;;;;;;;;;;;;;;;21.30;75.54;99873.09;3146833;28;19927;-65
2022/06/27 05:43:51;;;;;;;;;;;;;;;21.35;75.55;99873.53;3152336;28;20357;-65
2022/06/27 05:45:23;;;;;;;;;;;;;;;21.43;75.31;99872.88;3142509;28;19920;-65
2022/06/27 05:46:56;;;;;;;;;;;;;;;21.46;75.22;99872.59;3146849;28;19921;-65
2022/06/27 05:48:26;;;;;;;;;;;;;;;21.50;74.83;99868.72;3145865;28;20010;-65
2022/06/27 05:49:59;;;;;;;;;;;;;;;21.54;74.93;99874.56;3146361;28;19931;-65
2022/06/27 05:51:30;;;;;;;;;;;;;;;21.54;74.95;99870.09;3146522;28;19967;-65
2022/06/27 05:53:03;;;;;;;;;;;;;;;21.55;75.08;99877.06;3146882;28;20031;-65
2022/06/27 05:54:35;;;;;;;;;;;;;;;21.60;74.74;99879.31;3146488;28;20393;-65
2022/06/27 05:56:08;;;;;;;;;;;;;;;21.65;74.45;99871.78;3137940;28;19920;-65
2022/06/27 05:57:41;;;;;;;;;;;;;;;21.70;74.21;99874.00;3146639;28;20479;-65
2022/06/27 05:59:14;;;;;;;;;;;;;;;21.76;74.32;99884.88;3147624;28;20339;-65
2022/06/27 06:00:46;;;;;;;;;;;;;;;21.83;74.01;99882.53;3146379;28;20106;-65
2022/06/27 06:02:18;;;;;;;;;;;;;;;21.90;73.72;99894.25;3146685;28;19948;-65
2022/06/27 06:03:50;;;;;;;;;;;;;;;21.90;73.29;99888.13;3143138;28;19981;-65
2022/06/27 06:05:22;;;;;;;;;;;;;;;21.95;73.48;99886.72;3146342;28;19925;-65
2022/06/27 06:06:54;;;;;;;;;;;;;;;22.02;73.09;99890.47;3146714;28;20460;-65
2022/06/27 06:08:26;;;;;;;;;;;;;;;22.09;72.63;99893.38;3146404;28;19943;-65
2022/06/27 06:09:57;;;;;;;;;;;;;;;22.17;72.81;99893.56;3146398;28;19932;-65
2022/06/27 06:11:30;;;;;;;;;;;;;;;22.24;72.36;99894.69;3146577;28;20300;-65
2022/06/27 06:13:02;;;;;;;;;;;;;;;22.32;72.57;99899.25;3146630;28;20027;-65
2022/06/27 06:14:35;;;;;;;;;;;;;;;22.38;71.81;99881.94;3146669;28;19974;-65
2022/06/27 06:16:09;;;;;;;;;;;;;;;22.42;71.21;99891.28;3146319;28;19920;-65
2022/06/27 06:17:42;;;;;;;;;;;;;;;22.43;70.86;99885.84;3144805;28;19921;-65
2022/06/27 06:19:14;;;;;;;;;;;;;;;22.50;70.91;99883.44;3146688;28;19967;-65
2022/06/27 06:20:46;;;;;;;;;;;;;;;22.58;70.14;99880.91;3146726;28;19928;-65
2022/06/27 06:22:17;;;;;;;;;;;;;;;22.61;68.71;99885.09;3142177;28;19924;-65
2022/06/27 06:23:49;;;;;;;;;;;;;;;;;;3145558;28;20522;-65
2022/06/27 06:25:20;;;;;;;;;;;;;;;22.74;68.42;99893.56;3146462;28;19920;-65
2022/06/27 06:26:53;;;;;;;;;;;;;;;22.76;67.70;99894.25;3146380;28;19950;-65
2022/06/27 06:28:25;;;;;;;;;;;;;;;22.79;67.53;99890.47;3148568;28;19924;-65
2022/06/27 06:30:02;;;;;;;;;;;;;;;22.85;67.52;99893.38;3146300;28;19920;-65
2022/06/27 06:31:34;;;;;;;;;;;;;;;22.92;67.48;99883.88;3145734;28;20467;-65
2022/06/27 06:33:05;;;;;;;;;;;;;;;22.98;67.16;99886.94;3146197;28;20000;-65
2022/06/27 06:34:37;;;;;;;;;;;;;;;23.04;66.87;99875.72;3146186;28;19921;-65
2022/06/27 06:36:09;;;;;;;;;;;;;;;23.12;67.13;99887.28;3146065;28;19928;-65
2022/06/27 06:37:41;;;;;;;;;;;;;;;23.19;66.41;99884.88;3146513;28;19920;-65
2022/06/27 06:39:14;;;;;;;;;;;;;;;23.27;65.41;99882.31;3146158;28;19928;-65
2022/06/27 06:40:45;;;;;;;;;;;;;;;23.38;65.86;99884.75;3146254;28;19932;-65
2022/06/27 06:42:17;;;;;;;;;;;;;;;23.47;64.81;99882.19;3146074;28;19920;-65
2022/06/27 06:43:48;;;;;;;;;;;;;;;23.54;64.54;99884.09;3150723;28;19930;-65
2022/06/27 06:45:21;;;;;;;;;;;;;;;23.61;64.34;99884.34;3146061;28;19927;-65
2022/06/27 06:46:55;;;;;;;;;;;;;;;23.69;64.55;99878.25;3135434;28;19921;-65
2022/06/27 06:48:27;;;;;;;;;;;;;;;23.74;62.55;99884.81;3145653;28;19928;-65
2022/06/27 06:49:58;;;;;;;;;;;;;;;23.81;62.29;99879.72;3146242;28;19964;-65
2022/06/27 06:51:31;;;;;;;;;;;;;;;23.89;62.43;99881.63;3145973;28;19924;-65
2022/06/27 06:53:04;;;;;;;;;;;;;;;23.97;62.20;99884.34;3145500;28;19931;-65
2022/06/27 06:54:37;;;;;;;;;;;;;;;24.08;62.01;99884.13;3146097;28;19953;-65
2022/06/27 06:56:09;;;;;;;;;;;;;;;24.19;61.78;99886.50;3137383;28;19930;-65
2022/06/27 06:57:40;;;;;;;;;;;;;;;24.27;60.97;99886.59;3146147;28;19927;-65
2022/06/27 06:59:13;;;;;;;;;;;;;;;24.32;60.04;99890.63;3143546;28;19980;-65
2022/06/27 07:00:47;;;;;;;;;;;;;;;24.41;60.05;99893.19;3145885;28;20309;-65
2022/06/27 07:02:19;;;;;;;;;;;;;;;24.50;59.49;99891.44;3145944;28;19982;-65
2022/06/27 07:03:51;;;;;;;;;;;;;;;24.54;58.24;99891.94;3145725;28;20361;-65
2022/06/27 07:05:23;;;;;;;;;;;;;;;24.58;58.81;99883.50;3150718;28;19973;-65
2022/06/27 07:06:56;;;;;;;;;;;;;;;24.65;58.96;99889.84;3158942;28;19943;-66
2022/06/27 07:08:28;;;;;;;;;;;;;;;24.72;58.51;99882.88;3158536;28;19934;-65
2022/06/27 07:10:00;;;;;;;;;;;;;;;24.75;58.00;99887.91;3158349;28;19920;-65
2022/06/27 07:11:32;;;;;;;;;;;;;;;24.84;58.34;99887.94;3155326;28;19920;-65
2022/06/27 07:13:04;;;;;;;;;;;;;;;24.89;58.12;99891.81;3158319;28;20003;-65
2022/06/27 07:14:36;;;;;;;;;;;;;;;24.96;58.20;99884.88;3156849;28;20321;-65
2022/06/27 07:16:09;;;;;;;;;;;;;;;25.08;57.86;99880.09;3151771;28;20317;-65
2022/06/27 07:17:41;;;;;;;;;;;;;;;25.19;57.91;99884.28;3158205;28;19920;-65
2022/06/27 07:19:13;;;;;;;;;;;;;;;25.28;57.40;99885.16;3158425;28;20006;-65
2022/06/27 07:20:45;;;;;;;;;;;;;;;25.33;56.14;99883.69;3158231;28;20324;-65
2022/06/27 07:22:19;;;;;;;;;;;;;;;25.42;55.68;99885.38;3158494;28;20364;-65
2022/06/27 07:23:51;;;;;;;;;;;;;;;25.54;55.76;99885.88;3151783;28;19924;-65
2022/06/27 07:25:25;;;;;;;;;;;;;;;25.73;54.36;99886.56;3158527;28;20875;-65
2022/06/27 07:26:59;;;;;;;;;;;;;;;25.85;54.39;99875.47;3158229;28;19920;-65
2022/06/27 07:28:30;;;;;;;;;;;;;;;25.96;54.85;99886.81;3159312;28;20297;-65
2022/06/27 07:30:03;;;;;;;;;;;;;;;26.05;54.24;99891.13;3158248;28;19932;-65
2022/06/27 07:31:36;;;;;;;;;;;;;;;26.09;54.38;99890.66;3158058;28;20013;-65
2022/06/27 07:33:09;;;;;;;;;;;;;;;26.17;54.47;99888.97;3158071;28;19920;-65
2022/06/27 07:34:41;;;;;;;;;;;;;;;26.24;54.00;99893.47;3158453;28;19959;-65
2022/06/27 07:36:14;;;;;;;;;;;;;;;26.34;53.23;99893.28;3158303;28;20309;-65
2022/06/27 07:37:48;;;;;;;;;;;;;;;26.42;52.80;99895.13;3151545;28;19923;-65
2022/06/27 07:39:20;;;;;;;;;;;;;;;26.49;52.78;99896.97;3158106;28;19959;-65
2022/06/27 07:40:52;;;;;;;;;;;;;;;26.54;52.15;99894.63;3158354;28;19923;-65
2022/06/27 07:42:23;;;;;;;;;;;;;;;26.58;50.73;99892.44;3157941;28;20369;-65
2022/06/27 07:43:55;;;;;;;;;;;;;;;26.66;51.33;99894.28;3161910;28;19927;-65
2022/06/27 07:45:27;;;;;;;;;;;;;;;26.73;50.94;99903.25;3158054;28;19930;-65
2022/06/27 07:47:01;;;;;;;;;;;;;;;26.75;50.56;99896.72;3157814;28;20458;-65
2022/06/27 07:48:33;;;;;;;;;;;;;;;26.74;49.94;99895.09;3157850;28;20357;-65
2022/06/27 07:50:06;;;;;;;;;;;;;;;26.78;49.80;99898.22;3151333;28;19927;-65
2022/06/27 07:51:37;;;;;;;;;;;;;;;26.83;50.30;99887.00;3157694;28;19927;-65
2022/06/27 07:53:12;;;;;;;;;;;;;;;26.84;49.32;99892.19;3157778;28;19928;-65
2022/06/27 07:54:43;;;;;;;;;;;;;;;26.80;47.52;99888.22;3158244;28;19920;-65
2022/06/27 07:56:16;;;;;;;;;;;;;;;26.82;48.38;99883.50;3157930;28;19920;-65
2022/06/27 07:57:50;;;;;;;;;;;;;;;26.84;47.96;99884.19;3157823;28;19934;-65
2022/06/27 07:59:21;;;;;;;;;;;;;;;26.91;48.93;99882.47;3164308;28;19920;-66
2022/06/27 08:00:53;;;;;;;;;;;;;;;26.96;49.05;99880.13;3158374;28;19929;-65
2022/06/27 08:02:26;;;;;;;;;;;;;;;27.07;49.54;99878.09;3153597;28;19919;-65
2022/06/27 08:03:57;;;;;;;;;;;;;;;27.23;48.49;99870.84;3157629;28;19920;-65